sensor_id;sensor_type;location;lat;lon;timestamp;temperature;humidity
60848;DHT22;46681;47.696;9.140;2023-10-08T00:00:16;16.50;56.20
60848;DHT22;46681;47.696;9.140;2023-10-08T00:02:44;16.40;56.30
60848;DHT22;46681;47.696;9.140;2023-10-08T00:05:13;16.40;56.10
60848;DHT22;46681;47.696;9.140;2023-10-08T00:07:45;16.40;56.20
60848;DHT22;46681;47.696;9.140;2023-10-08T00:10:12;16.40;56.30
60848;DHT22;46681;47.696;9.140;2023-10-08T00:12:47;16.30;56.20
60848;DHT22;46681;47.696;9.140;2023-10-08T00:15:13;16.30;56.10
60848;DHT22;46681;47.696;9.140;2023-10-08T00:17:38;16.30;56.20
60848;DHT22;46681;47.696;9.140;2023-10-08T00:20:04;16.20;56.10
60848;DHT22;46681;47.696;9.140;2023-10-08T00:22:30;16.20;56.10
60848;DHT22;46681;47.696;9.140;2023-10-08T00:24:55;16.20;56.30
60848;DHT22;46681;47.696;9.140;2023-10-08T00:27:24;16.20;56.10
60848;DHT22;46681;47.696;9.140;2023-10-08T00:29:50;16.20;56.30
60848;DHT22;46681;47.696;9.140;2023-10-08T00:32:15;16.20;56.30
60848;DHT22;46681;47.696;9.140;2023-10-08T00:34:42;16.10;56.20
60848;DHT22;46681;47.696;9.140;2023-10-08T00:37:11;16.10;56.30
60848;DHT22;46681;47.696;9.140;2023-10-08T00:39:37;16.10;56.30
60848;DHT22;46681;47.696;9.140;2023-10-08T00:42:03;16.10;56.30
60848;DHT22;46681;47.696;9.140;2023-10-08T00:44:29;16.00;56.30
60848;DHT22;46681;47.696;9.140;2023-10-08T00:46:57;16.10;56.40
60848;DHT22;46681;47.696;9.140;2023-10-08T00:49:24;16.00;56.30
60848;DHT22;46681;47.696;9.140;2023-10-08T00:51:57;16.00;56.40
60848;DHT22;46681;47.696;9.140;2023-10-08T00:54:26;16.00;56.40
60848;DHT22;46681;47.696;9.140;2023-10-08T00:57:00;15.90;56.50
60848;DHT22;46681;47.696;9.140;2023-10-08T00:59:27;15.90;56.40
60848;DHT22;46681;47.696;9.140;2023-10-08T01:01:56;15.90;56.40
60848;DHT22;46681;47.696;9.140;2023-10-08T01:04:22;15.90;56.50
60848;DHT22;46681;47.696;9.140;2023-10-08T01:06:52;15.90;56.50
60848;DHT22;46681;47.696;9.140;2023-10-08T01:09:21;15.90;56.60
60848;DHT22;46681;47.696;9.140;2023-10-08T01:12:19;15.90;56.50
60848;DHT22;46681;47.696;9.140;2023-10-08T01:14:47;15.90;56.70
60848;DHT22;46681;47.696;9.140;2023-10-08T01:17:17;15.80;56.70
60848;DHT22;46681;47.696;9.140;2023-10-08T01:19:43;15.80;56.70
60848;DHT22;46681;47.696;9.140;2023-10-08T01:22:08;15.80;56.80
60848;DHT22;46681;47.696;9.140;2023-10-08T01:24:34;15.80;56.80
60848;DHT22;46681;47.696;9.140;2023-10-08T01:26:59;15.80;56.80
60848;DHT22;46681;47.696;9.140;2023-10-08T01:29:28;15.80;56.80
60848;DHT22;46681;47.696;9.140;2023-10-08T01:31:56;15.70;56.80
60848;DHT22;46681;47.696;9.140;2023-10-08T01:34:24;15.70;56.80
60848;DHT22;46681;47.696;9.140;2023-10-08T01:36:49;15.70;56.80
60848;DHT22;46681;47.696;9.140;2023-10-08T01:39:18;15.70;56.90
60848;DHT22;46681;47.696;9.140;2023-10-08T01:41:44;15.70;56.80
60848;DHT22;46681;47.696;9.140;2023-10-08T01:44:13;15.70;56.80
60848;DHT22;46681;47.696;9.140;2023-10-08T01:46:38;15.60;56.90
60848;DHT22;46681;47.696;9.140;2023-10-08T01:49:07;15.60;56.80
60848;DHT22;46681;47.696;9.140;2023-10-08T01:51:32;15.60;56.70
60848;DHT22;46681;47.696;9.140;2023-10-08T01:53:58;15.60;56.90
60848;DHT22;46681;47.696;9.140;2023-10-08T01:56:23;15.60;56.90
60848;DHT22;46681;47.696;9.140;2023-10-08T01:58:49;15.50;57.20
60848;DHT22;46681;47.696;9.140;2023-10-08T02:01:19;15.50;56.90
60848;DHT22;46681;47.696;9.140;2023-10-08T02:03:45;15.50;57.30
60848;DHT22;46681;47.696;9.140;2023-10-08T02:06:12;15.50;57.00
60848;DHT22;46681;47.696;9.140;2023-10-08T02:08:37;15.40;56.90
60848;DHT22;46681;47.696;9.140;2023-10-08T02:11:03;15.40;57.00
60848;DHT22;46681;47.696;9.140;2023-10-08T02:13:28;15.40;56.90
60848;DHT22;46681;47.696;9.140;2023-10-08T02:15:54;15.40;56.90
60848;DHT22;46681;47.696;9.140;2023-10-08T02:18:20;15.40;56.90
60848;DHT22;46681;47.696;9.140;2023-10-08T02:20:46;15.40;56.70
60848;DHT22;46681;47.696;9.140;2023-10-08T02:23:18;15.40;56.90
60848;DHT22;46681;47.696;9.140;2023-10-08T02:25:46;15.30;56.80
60848;DHT22;46681;47.696;9.140;2023-10-08T02:28:12;15.30;56.80
60848;DHT22;46681;47.696;9.140;2023-10-08T02:30:37;15.30;56.80
60848;DHT22;46681;47.696;9.140;2023-10-08T02:33:03;15.30;56.90
60848;DHT22;46681;47.696;9.140;2023-10-08T02:35:29;15.30;56.70
60848;DHT22;46681;47.696;9.140;2023-10-08T02:37:54;15.20;56.70
60848;DHT22;46681;47.696;9.140;2023-10-08T02:40:20;15.20;56.70
60848;DHT22;46681;47.696;9.140;2023-10-08T02:42:49;15.20;56.70
60848;DHT22;46681;47.696;9.140;2023-10-08T02:45:20;15.10;56.70
60848;DHT22;46681;47.696;9.140;2023-10-08T02:47:46;15.10;56.80
60848;DHT22;46681;47.696;9.140;2023-10-08T02:50:18;15.10;56.70
60848;DHT22;46681;47.696;9.140;2023-10-08T02:52:44;15.10;56.70
60848;DHT22;46681;47.696;9.140;2023-10-08T02:55:17;15.10;56.70
60848;DHT22;46681;47.696;9.140;2023-10-08T02:57:42;15.10;56.80
60848;DHT22;46681;47.696;9.140;2023-10-08T03:00:17;15.10;56.70
60848;DHT22;46681;47.696;9.140;2023-10-08T03:02:45;15.00;56.70
60848;DHT22;46681;47.696;9.140;2023-10-08T03:05:16;15.00;56.80
60848;DHT22;46681;47.696;9.140;2023-10-08T03:07:44;15.00;56.80
60848;DHT22;46681;47.696;9.140;2023-10-08T03:10:10;15.00;56.80
60848;DHT22;46681;47.696;9.140;2023-10-08T03:12:40;15.00;56.70
60848;DHT22;46681;47.696;9.140;2023-10-08T03:15:07;15.00;56.90
60848;DHT22;46681;47.696;9.140;2023-10-08T03:17:32;15.00;56.90
60848;DHT22;46681;47.696;9.140;2023-10-08T03:19:58;15.00;59.40
60848;DHT22;46681;47.696;9.140;2023-10-08T03:22:23;15.00;58.20
60848;DHT22;46681;47.696;9.140;2023-10-08T03:24:49;15.00;57.90
60848;DHT22;46681;47.696;9.140;2023-10-08T03:27:18;15.00;57.80
60848;DHT22;46681;47.696;9.140;2023-10-08T03:29:46;15.00;57.70
60848;DHT22;46681;47.696;9.140;2023-10-08T03:32:17;15.00;57.60
60848;DHT22;46681;47.696;9.140;2023-10-08T03:34:48;15.00;57.40
60848;DHT22;46681;47.696;9.140;2023-10-08T03:37:17;15.00;57.40
60848;DHT22;46681;47.696;9.140;2023-10-08T03:39:43;15.00;57.30
60848;DHT22;46681;47.696;9.140;2023-10-08T03:42:08;15.00;57.20
60848;DHT22;46681;47.696;9.140;2023-10-08T03:44:34;15.00;57.10
60848;DHT22;46681;47.696;9.140;2023-10-08T03:46:59;14.90;57.10
60848;DHT22;46681;47.696;9.140;2023-10-08T03:49:25;14.90;57.10
60848;DHT22;46681;47.696;9.140;2023-10-08T03:51:51;14.90;57.10
60848;DHT22;46681;47.696;9.140;2023-10-08T03:54:26;14.90;57.10
60848;DHT22;46681;47.696;9.140;2023-10-08T03:56:52;14.90;57.00
60848;DHT22;46681;47.696;9.140;2023-10-08T03:59:18;14.90;57.00
60848;DHT22;46681;47.696;9.140;2023-10-08T04:01:43;14.90;56.90
60848;DHT22;46681;47.696;9.140;2023-10-08T04:04:11;14.90;57.00
60848;DHT22;46681;47.696;9.140;2023-10-08T04:06:36;14.90;57.00
60848;DHT22;46681;47.696;9.140;2023-10-08T04:09:04;14.90;57.00
60848;DHT22;46681;47.696;9.140;2023-10-08T04:11:34;14.90;57.00
60848;DHT22;46681;47.696;9.140;2023-10-08T04:14:03;14.90;57.10
60848;DHT22;46681;47.696;9.140;2023-10-08T04:16:32;14.90;57.20
60848;DHT22;46681;47.696;9.140;2023-10-08T04:18:58;14.80;57.10
60848;DHT22;46681;47.696;9.140;2023-10-08T04:21:23;14.80;57.10
60848;DHT22;46681;47.696;9.140;2023-10-08T04:23:49;14.80;57.10
60848;DHT22;46681;47.696;9.140;2023-10-08T04:26:18;14.80;57.10
60848;DHT22;46681;47.696;9.140;2023-10-08T04:28:44;14.80;57.10
60848;DHT22;46681;47.696;9.140;2023-10-08T04:31:10;14.80;57.10
60848;DHT22;46681;47.696;9.140;2023-10-08T04:33:36;14.80;57.20
60848;DHT22;46681;47.696;9.140;2023-10-08T04:36:04;14.80;57.10
60848;DHT22;46681;47.696;9.140;2023-10-08T04:38:29;14.80;57.00
60848;DHT22;46681;47.696;9.140;2023-10-08T04:40:55;14.80;57.10
60848;DHT22;46681;47.696;9.140;2023-10-08T04:43:25;14.80;57.10
60848;DHT22;46681;47.696;9.140;2023-10-08T04:45:52;14.80;57.10
60848;DHT22;46681;47.696;9.140;2023-10-08T04:48:18;14.80;57.10
60848;DHT22;46681;47.696;9.140;2023-10-08T04:50:44;14.70;57.10
60848;DHT22;46681;47.696;9.140;2023-10-08T04:53:10;14.80;57.10
60848;DHT22;46681;47.696;9.140;2023-10-08T04:55:36;14.70;57.10
60848;DHT22;46681;47.696;9.140;2023-10-08T04:58:04;14.80;57.10
60848;DHT22;46681;47.696;9.140;2023-10-08T05:00:29;14.70;57.00
60848;DHT22;46681;47.696;9.140;2023-10-08T05:02:55;14.80;57.00
60848;DHT22;46681;47.696;9.140;2023-10-08T05:05:20;14.70;57.00
60848;DHT22;46681;47.696;9.140;2023-10-08T05:07:46;14.70;56.90
60848;DHT22;46681;47.696;9.140;2023-10-08T05:10:19;14.70;57.00
60848;DHT22;46681;47.696;9.140;2023-10-08T05:12:45;14.70;56.90
60848;DHT22;46681;47.696;9.140;2023-10-08T05:15:14;14.70;57.00
60848;DHT22;46681;47.696;9.140;2023-10-08T05:17:43;14.70;57.00
60848;DHT22;46681;47.696;9.140;2023-10-08T05:20:13;14.70;57.00
60848;DHT22;46681;47.696;9.140;2023-10-08T05:22:39;14.60;56.90
60848;DHT22;46681;47.696;9.140;2023-10-08T05:25:05;14.60;57.00
60848;DHT22;46681;47.696;9.140;2023-10-08T05:27:34;14.60;56.90
60848;DHT22;46681;47.696;9.140;2023-10-08T05:30:03;14.60;57.00
60848;DHT22;46681;47.696;9.140;2023-10-08T05:32:30;14.60;57.00
60848;DHT22;46681;47.696;9.140;2023-10-08T05:34:57;14.60;57.00
60848;DHT22;46681;47.696;9.140;2023-10-08T05:37:27;14.60;56.90
60848;DHT22;46681;47.696;9.140;2023-10-08T05:39:52;14.60;57.00
60848;DHT22;46681;47.696;9.140;2023-10-08T05:42:19;14.60;56.90
60848;DHT22;46681;47.696;9.140;2023-10-08T05:44:45;14.60;57.00
60848;DHT22;46681;47.696;9.140;2023-10-08T05:47:16;14.60;56.90
60848;DHT22;46681;47.696;9.140;2023-10-08T05:49:44;14.60;56.90
60848;DHT22;46681;47.696;9.140;2023-10-08T05:52:09;14.60;56.90
60848;DHT22;46681;47.696;9.140;2023-10-08T05:54:35;14.60;56.80
60848;DHT22;46681;47.696;9.140;2023-10-08T05:57:15;14.60;56.80
60848;DHT22;46681;47.696;9.140;2023-10-08T05:59:42;14.60;56.80
60848;DHT22;46681;47.696;9.140;2023-10-08T06:02:13;14.60;56.70
60848;DHT22;46681;47.696;9.140;2023-10-08T06:04:38;14.50;56.70
60848;DHT22;46681;47.696;9.140;2023-10-08T06:07:13;14.60;56.80
60848;DHT22;46681;47.696;9.140;2023-10-08T06:09:39;14.60;56.70
60848;DHT22;46681;47.696;9.140;2023-10-08T06:12:04;14.60;56.80
60848;DHT22;46681;47.696;9.140;2023-10-08T06:14:30;14.50;57.10
60848;DHT22;46681;47.696;9.140;2023-10-08T06:16:55;14.60;57.10
60848;DHT22;46681;47.696;9.140;2023-10-08T06:19:21;14.60;57.20
60848;DHT22;46681;47.696;9.140;2023-10-08T06:21:49;14.50;57.00
60848;DHT22;46681;47.696;9.140;2023-10-08T06:24:22;14.60;57.00
60848;DHT22;46681;47.696;9.140;2023-10-08T06:26:49;14.60;57.00
60848;DHT22;46681;47.696;9.140;2023-10-08T06:29:18;14.60;57.10
60848;DHT22;46681;47.696;9.140;2023-10-08T06:31:48;14.60;57.00
60848;DHT22;46681;47.696;9.140;2023-10-08T06:34:17;14.60;57.00
60848;DHT22;46681;47.696;9.140;2023-10-08T06:36:48;14.60;56.90
60848;DHT22;46681;47.696;9.140;2023-10-08T06:39:25;14.60;56.80
60848;DHT22;46681;47.696;9.140;2023-10-08T06:41:58;14.60;56.80
60848;DHT22;46681;47.696;9.140;2023-10-08T06:44:24;14.70;56.90
60848;DHT22;46681;47.696;9.140;2023-10-08T06:46:56;14.70;56.80
60848;DHT22;46681;47.696;9.140;2023-10-08T06:49:24;14.70;56.80
60848;DHT22;46681;47.696;9.140;2023-10-08T06:51:54;14.70;56.80
60848;DHT22;46681;47.696;9.140;2023-10-08T06:54:23;14.70;56.80
60848;DHT22;46681;47.696;9.140;2023-10-08T06:57:08;14.70;56.80
60848;DHT22;46681;47.696;9.140;2023-10-08T06:59:38;14.70;56.80
60848;DHT22;46681;47.696;9.140;2023-10-08T07:02:08;14.70;56.70
60848;DHT22;46681;47.696;9.140;2023-10-08T07:04:40;14.70;57.40
60848;DHT22;46681;47.696;9.140;2023-10-08T07:07:12;14.80;57.30
60848;DHT22;46681;47.696;9.140;2023-10-08T07:09:49;14.80;57.10
60848;DHT22;46681;47.696;9.140;2023-10-08T07:12:20;14.80;57.00
60848;DHT22;46681;47.696;9.140;2023-10-08T07:14:45;14.90;57.00
60848;DHT22;46681;47.696;9.140;2023-10-08T07:17:24;14.90;57.00
60848;DHT22;46681;47.696;9.140;2023-10-08T07:19:59;14.90;57.00
60848;DHT22;46681;47.696;9.140;2023-10-08T07:22:25;14.90;57.00
60848;DHT22;46681;47.696;9.140;2023-10-08T07:25:03;15.00;57.00
60848;DHT22;46681;47.696;9.140;2023-10-08T07:27:32;15.00;56.90
60848;DHT22;46681;47.696;9.140;2023-10-08T07:30:01;15.10;57.40
60848;DHT22;46681;47.696;9.140;2023-10-08T07:32:32;15.10;57.10
60848;DHT22;46681;47.696;9.140;2023-10-08T07:35:01;15.20;57.00
60848;DHT22;46681;47.696;9.140;2023-10-08T07:37:39;15.20;56.90
60848;DHT22;46681;47.696;9.140;2023-10-08T07:40:06;15.30;57.50
60848;DHT22;46681;47.696;9.140;2023-10-08T07:42:35;15.30;57.60
60848;DHT22;46681;47.696;9.140;2023-10-08T07:45:13;15.40;57.90
60848;DHT22;46681;47.696;9.140;2023-10-08T07:50:44;15.60;64.00
60848;DHT22;46681;47.696;9.140;2023-10-08T07:53:30;15.70;63.70
60848;DHT22;46681;47.696;9.140;2023-10-08T07:56:10;15.90;64.10
60848;DHT22;46681;47.696;9.140;2023-10-08T07:58:36;16.00;62.90
60848;DHT22;46681;47.696;9.140;2023-10-08T08:01:20;16.20;63.50
60848;DHT22;46681;47.696;9.140;2023-10-08T08:04:25;16.30;61.10
60848;DHT22;46681;47.696;9.140;2023-10-08T08:10:03;16.60;60.60
60848;DHT22;46681;47.696;9.140;2023-10-08T08:19:22;17.10;58.60
60848;DHT22;46681;47.696;9.140;2023-10-08T08:28:06;17.60;57.90
60848;DHT22;46681;47.696;9.140;2023-10-08T08:33:56;17.90;57.30
60848;DHT22;46681;47.696;9.140;2023-10-08T08:36:53;18.10;57.80
60848;DHT22;46681;47.696;9.140;2023-10-08T08:39:27;18.30;56.90
60848;DHT22;46681;47.696;9.140;2023-10-08T08:42:21;18.40;56.70
60848;DHT22;46681;47.696;9.140;2023-10-08T08:45:26;18.60;56.00
60848;DHT22;46681;47.696;9.140;2023-10-08T08:48:22;18.70;55.70
60848;DHT22;46681;47.696;9.140;2023-10-08T08:50:51;19.00;55.70
60848;DHT22;46681;47.696;9.140;2023-10-08T08:53:28;19.20;55.40
60848;DHT22;46681;47.696;9.140;2023-10-08T08:56:14;19.40;54.90
60848;DHT22;46681;47.696;9.140;2023-10-08T08:58:48;19.60;54.60
60848;DHT22;46681;47.696;9.140;2023-10-08T09:01:23;19.70;54.10
60848;DHT22;46681;47.696;9.140;2023-10-08T09:03:51;19.90;53.80
60848;DHT22;46681;47.696;9.140;2023-10-08T09:06:22;20.00;53.50
60848;DHT22;46681;47.696;9.140;2023-10-08T09:08:56;20.20;53.20
60848;DHT22;46681;47.696;9.140;2023-10-08T09:11:32;20.50;52.60
60848;DHT22;46681;47.696;9.140;2023-10-08T09:14:32;20.60;52.10
60848;DHT22;46681;47.696;9.140;2023-10-08T09:17:05;20.70;52.00
60848;DHT22;46681;47.696;9.140;2023-10-08T09:19:38;20.80;51.70
60848;DHT22;46681;47.696;9.140;2023-10-08T09:22:18;20.90;51.60
60848;DHT22;46681;47.696;9.140;2023-10-08T09:24:50;21.00;51.40
60848;DHT22;46681;47.696;9.140;2023-10-08T09:27:23;21.10;51.00
60848;DHT22;46681;47.696;9.140;2023-10-08T09:29:58;21.20;50.80
60848;DHT22;46681;47.696;9.140;2023-10-08T09:32:47;21.40;50.70
60848;DHT22;46681;47.696;9.140;2023-10-08T09:35:20;21.60;50.50
60848;DHT22;46681;47.696;9.140;2023-10-08T09:37:46;21.80;50.20
60848;DHT22;46681;47.696;9.140;2023-10-08T09:40:26;22.00;49.70
60848;DHT22;46681;47.696;9.140;2023-10-08T09:43:11;22.30;49.60
60848;DHT22;46681;47.696;9.140;2023-10-08T09:45:46;22.40;49.30
60848;DHT22;46681;47.696;9.140;2023-10-08T09:48:31;22.60;49.00
60848;DHT22;46681;47.696;9.140;2023-10-08T09:51:22;22.70;48.50
60848;DHT22;46681;47.696;9.140;2023-10-08T09:54:18;23.00;48.70
60848;DHT22;46681;47.696;9.140;2023-10-08T09:56:46;23.20;47.90
60848;DHT22;46681;47.696;9.140;2023-10-08T09:59:29;23.30;47.50
60848;DHT22;46681;47.696;9.140;2023-10-08T10:01:55;23.40;47.40
60848;DHT22;46681;47.696;9.140;2023-10-08T10:04:23;23.60;47.30
60848;DHT22;46681;47.696;9.140;2023-10-08T10:07:10;23.70;47.20
60848;DHT22;46681;47.696;9.140;2023-10-08T10:09:59;23.80;47.00
60848;DHT22;46681;47.696;9.140;2023-10-08T10:12:52;24.00;46.70
60848;DHT22;46681;47.696;9.140;2023-10-08T10:15:39;24.10;46.40
60848;DHT22;46681;47.696;9.140;2023-10-08T10:24:04;24.30;46.20
60848;DHT22;46681;47.696;9.140;2023-10-08T10:26:40;24.40;46.20
60848;DHT22;46681;47.696;9.140;2023-10-08T10:29:26;24.40;46.70
60848;DHT22;46681;47.696;9.140;2023-10-08T10:38:03;24.70;45.90
60848;DHT22;46681;47.696;9.140;2023-10-08T10:40:36;24.70;46.00
60848;DHT22;46681;47.696;9.140;2023-10-08T10:46:10;24.90;46.00
60848;DHT22;46681;47.696;9.140;2023-10-08T10:48:42;25.10;45.70
60848;DHT22;46681;47.696;9.140;2023-10-08T10:51:21;25.30;46.00
60848;DHT22;46681;47.696;9.140;2023-10-08T10:53:57;25.50;45.30
60848;DHT22;46681;47.696;9.140;2023-10-08T10:56:31;25.80;45.10
60848;DHT22;46681;47.696;9.140;2023-10-08T10:59:17;25.90;45.00
60848;DHT22;46681;47.696;9.140;2023-10-08T11:05:11;26.10;44.80
60848;DHT22;46681;47.696;9.140;2023-10-08T11:07:39;26.40;44.50
60848;DHT22;46681;47.696;9.140;2023-10-08T11:10:20;26.40;44.40
60848;DHT22;46681;47.696;9.140;2023-10-08T11:12:54;26.60;44.10
60848;DHT22;46681;47.696;9.140;2023-10-08T11:15:29;26.80;44.00
60848;DHT22;46681;47.696;9.140;2023-10-08T11:18:01;27.00;43.80
60848;DHT22;46681;47.696;9.140;2023-10-08T11:20:39;27.20;43.60
60848;DHT22;46681;47.696;9.140;2023-10-08T11:23:36;27.20;43.80
60848;DHT22;46681;47.696;9.140;2023-10-08T11:26:11;27.10;43.70
60848;DHT22;46681;47.696;9.140;2023-10-08T11:28:51;27.20;43.70
60848;DHT22;46681;47.696;9.140;2023-10-08T11:31:52;27.20;43.70
60848;DHT22;46681;47.696;9.140;2023-10-08T11:34:33;27.30;43.50
60848;DHT22;46681;47.696;9.140;2023-10-08T11:37:05;27.30;43.50
60848;DHT22;46681;47.696;9.140;2023-10-08T11:39:43;27.20;43.70
60848;DHT22;46681;47.696;9.140;2023-10-08T11:42:29;27.20;43.70
60848;DHT22;46681;47.696;9.140;2023-10-08T11:45:00;27.20;43.80
60848;DHT22;46681;47.696;9.140;2023-10-08T11:48:06;27.30;43.70
60848;DHT22;46681;47.696;9.140;2023-10-08T11:50:47;27.40;43.70
60848;DHT22;46681;47.696;9.140;2023-10-08T11:53:29;27.40;43.60
60848;DHT22;46681;47.696;9.140;2023-10-08T11:56:21;27.50;43.50
60848;DHT22;46681;47.696;9.140;2023-10-08T11:59:04;27.80;43.20
60848;DHT22;46681;47.696;9.140;2023-10-08T12:01:52;27.90;43.10
60848;DHT22;46681;47.696;9.140;2023-10-08T12:07:38;28.30;42.90
60848;DHT22;46681;47.696;9.140;2023-10-08T12:16:14;28.70;42.60
60848;DHT22;46681;47.696;9.140;2023-10-08T12:18:51;28.70;42.60
60848;DHT22;46681;47.696;9.140;2023-10-08T12:21:27;28.70;42.50
60848;DHT22;46681;47.696;9.140;2023-10-08T12:23:53;28.90;42.40
60848;DHT22;46681;47.696;9.140;2023-10-08T12:32:50;28.50;42.70
60848;DHT22;46681;47.696;9.140;2023-10-08T12:38:20;28.20;43.20
60848;DHT22;46681;47.696;9.140;2023-10-08T12:41:00;28.10;43.30
60848;DHT22;46681;47.696;9.140;2023-10-08T12:43:49;28.00;43.40
60848;DHT22;46681;47.696;9.140;2023-10-08T12:46:44;27.90;43.70
60848;DHT22;46681;47.696;9.140;2023-10-08T12:49:43;27.70;43.90
60848;DHT22;46681;47.696;9.140;2023-10-08T12:52:20;27.60;44.10
60848;DHT22;46681;47.696;9.140;2023-10-08T12:54:50;27.70;44.00
60848;DHT22;46681;47.696;9.140;2023-10-08T12:57:23;27.80;43.90
60848;DHT22;46681;47.696;9.140;2023-10-08T13:00:01;27.90;43.90
60848;DHT22;46681;47.696;9.140;2023-10-08T13:02:57;27.90;43.80
60848;DHT22;46681;47.696;9.140;2023-10-08T13:08:26;28.00;43.70
60848;DHT22;46681;47.696;9.140;2023-10-08T13:11:01;28.00;43.80
60848;DHT22;46681;47.696;9.140;2023-10-08T13:13:30;27.90;43.70
60848;DHT22;46681;47.696;9.140;2023-10-08T13:16:35;27.90;43.90
60848;DHT22;46681;47.696;9.140;2023-10-08T13:19:31;28.00;43.90
60848;DHT22;46681;47.696;9.140;2023-10-08T13:22:00;28.00;43.90
60848;DHT22;46681;47.696;9.140;2023-10-08T13:24:52;28.00;43.80
60848;DHT22;46681;47.696;9.140;2023-10-08T13:27:35;28.10;43.60
60848;DHT22;46681;47.696;9.140;2023-10-08T13:33:21;28.10;43.60
60848;DHT22;46681;47.696;9.140;2023-10-08T13:36:06;28.00;43.80
60848;DHT22;46681;47.696;9.140;2023-10-08T13:39:11;27.80;44.00
60848;DHT22;46681;47.696;9.140;2023-10-08T13:41:40;27.70;44.10
60848;DHT22;46681;47.696;9.140;2023-10-08T13:44:09;27.50;44.30
60848;DHT22;46681;47.696;9.140;2023-10-08T13:46:45;27.40;44.40
60848;DHT22;46681;47.696;9.140;2023-10-08T13:49:48;27.30;44.50
60848;DHT22;46681;47.696;9.140;2023-10-08T13:52:25;27.30;44.80
60848;DHT22;46681;47.696;9.140;2023-10-08T13:55:01;27.20;44.80
60848;DHT22;46681;47.696;9.140;2023-10-08T13:57:35;27.00;45.00
60848;DHT22;46681;47.696;9.140;2023-10-08T14:00:06;26.90;45.00
60848;DHT22;46681;47.696;9.140;2023-10-08T14:02:42;26.80;45.10
60848;DHT22;46681;47.696;9.140;2023-10-08T14:05:23;26.80;45.40
60848;DHT22;46681;47.696;9.140;2023-10-08T14:08:00;26.60;45.40
60848;DHT22;46681;47.696;9.140;2023-10-08T14:10:31;26.50;45.60
60848;DHT22;46681;47.696;9.140;2023-10-08T14:12:57;26.40;45.70
60848;DHT22;46681;47.696;9.140;2023-10-08T14:15:34;26.30;45.80
60848;DHT22;46681;47.696;9.140;2023-10-08T14:18:01;26.30;46.00
60848;DHT22;46681;47.696;9.140;2023-10-08T14:20:39;26.20;46.10
60848;DHT22;46681;47.696;9.140;2023-10-08T14:23:11;26.20;46.20
60848;DHT22;46681;47.696;9.140;2023-10-08T14:28:36;26.10;46.20
60848;DHT22;46681;47.696;9.140;2023-10-08T14:31:25;26.00;46.20
60848;DHT22;46681;47.696;9.140;2023-10-08T14:33:58;25.80;46.40
60848;DHT22;46681;47.696;9.140;2023-10-08T14:36:32;25.80;46.50
60848;DHT22;46681;47.696;9.140;2023-10-08T14:38:57;25.70;46.50
60848;DHT22;46681;47.696;9.140;2023-10-08T14:41:29;25.60;46.40
60848;DHT22;46681;47.696;9.140;2023-10-08T14:44:11;25.60;46.60
60848;DHT22;46681;47.696;9.140;2023-10-08T14:46:38;25.50;46.70
60848;DHT22;46681;47.696;9.140;2023-10-08T14:49:42;25.40;46.80
60848;DHT22;46681;47.696;9.140;2023-10-08T14:52:28;25.40;46.90
60848;DHT22;46681;47.696;9.140;2023-10-08T14:55:05;25.30;47.00
60848;DHT22;46681;47.696;9.140;2023-10-08T14:57:43;25.30;47.00
60848;DHT22;46681;47.696;9.140;2023-10-08T15:00:10;25.20;47.10
60848;DHT22;46681;47.696;9.140;2023-10-08T15:02:40;25.10;47.10
60848;DHT22;46681;47.696;9.140;2023-10-08T15:05:15;25.10;47.20
60848;DHT22;46681;47.696;9.140;2023-10-08T15:07:43;25.00;47.30
60848;DHT22;46681;47.696;9.140;2023-10-08T15:10:28;25.00;47.40
60848;DHT22;46681;47.696;9.140;2023-10-08T15:12:54;24.90;47.50
60848;DHT22;46681;47.696;9.140;2023-10-08T15:15:20;24.90;47.40
60848;DHT22;46681;47.696;9.140;2023-10-08T15:17:56;24.70;47.60
60848;DHT22;46681;47.696;9.140;2023-10-08T15:20:34;24.70;47.80
60848;DHT22;46681;47.696;9.140;2023-10-08T15:23:03;24.70;47.80
60848;DHT22;46681;47.696;9.140;2023-10-08T15:25:32;24.60;47.80
60848;DHT22;46681;47.696;9.140;2023-10-08T15:28:03;24.60;47.80
60848;DHT22;46681;47.696;9.140;2023-10-08T15:33:50;24.50;47.50
60848;DHT22;46681;47.696;9.140;2023-10-08T15:36:18;24.50;47.70
60848;DHT22;46681;47.696;9.140;2023-10-08T15:38:44;24.50;47.70
60848;DHT22;46681;47.696;9.140;2023-10-08T15:41:14;24.50;47.70
60848;DHT22;46681;47.696;9.140;2023-10-08T15:43:53;24.40;47.70
60848;DHT22;46681;47.696;9.140;2023-10-08T15:46:56;24.40;47.90
60848;DHT22;46681;47.696;9.140;2023-10-08T15:49:28;24.30;47.90
60848;DHT22;46681;47.696;9.140;2023-10-08T15:52:17;24.30;48.40
60848;DHT22;46681;47.696;9.140;2023-10-08T15:58:05;24.20;47.90
60848;DHT22;46681;47.696;9.140;2023-10-08T16:01:17;24.10;47.40
60848;DHT22;46681;47.696;9.140;2023-10-08T16:03:47;24.10;47.60
60848;DHT22;46681;47.696;9.140;2023-10-08T16:06:28;23.90;48.40
60848;DHT22;46681;47.696;9.140;2023-10-08T16:09:23;23.90;48.20
60848;DHT22;46681;47.696;9.140;2023-10-08T16:11:54;23.80;47.80
60848;DHT22;46681;47.696;9.140;2023-10-08T16:14:20;23.80;48.00
60848;DHT22;46681;47.696;9.140;2023-10-08T16:16:47;23.70;48.20
60848;DHT22;46681;47.696;9.140;2023-10-08T16:19:27;23.60;48.20
60848;DHT22;46681;47.696;9.140;2023-10-08T16:21:53;23.60;48.30
60848;DHT22;46681;47.696;9.140;2023-10-08T16:24:35;23.50;48.00
60848;DHT22;46681;47.696;9.140;2023-10-08T16:27:08;23.50;48.30
60848;DHT22;46681;47.696;9.140;2023-10-08T16:29:34;23.50;48.40
60848;DHT22;46681;47.696;9.140;2023-10-08T16:32:03;23.40;48.50
60848;DHT22;46681;47.696;9.140;2023-10-08T16:34:33;23.40;48.60
60848;DHT22;46681;47.696;9.140;2023-10-08T16:37:01;23.30;48.70
60848;DHT22;46681;47.696;9.140;2023-10-08T16:42:30;23.20;49.10
60848;DHT22;46681;47.696;9.140;2023-10-08T16:45:04;23.20;49.30
60848;DHT22;46681;47.696;9.140;2023-10-08T16:47:32;23.10;49.50
60848;DHT22;46681;47.696;9.140;2023-10-08T16:50:10;23.10;49.60
60848;DHT22;46681;47.696;9.140;2023-10-08T16:52:39;23.00;49.70
60848;DHT22;46681;47.696;9.140;2023-10-08T16:55:06;23.00;49.90
60848;DHT22;46681;47.696;9.140;2023-10-08T16:57:33;22.90;49.90
60848;DHT22;46681;47.696;9.140;2023-10-08T17:00:11;22.90;50.00
60848;DHT22;46681;47.696;9.140;2023-10-08T17:02:42;22.80;50.00
60848;DHT22;46681;47.696;9.140;2023-10-08T17:05:08;22.80;50.40
60848;DHT22;46681;47.696;9.140;2023-10-08T17:07:38;22.60;50.70
60848;DHT22;46681;47.696;9.140;2023-10-08T17:10:27;22.40;50.70
60848;DHT22;46681;47.696;9.140;2023-10-08T17:16:36;22.40;51.00
60848;DHT22;46681;47.696;9.140;2023-10-08T17:19:06;22.30;50.90
60848;DHT22;46681;47.696;9.140;2023-10-08T17:21:40;22.30;51.00
60848;DHT22;46681;47.696;9.140;2023-10-08T17:24:17;22.20;50.80
60848;DHT22;46681;47.696;9.140;2023-10-08T17:26:49;22.20;50.90